createdAt,value
2023-01-09T00:00:39.759Z,7.40
2023-01-09T00:03:11.585Z,7.30
2023-01-09T00:05:46.468Z,7.20
2023-01-09T00:08:18.644Z,7.10
2023-01-09T00:10:53.378Z,7.00
2023-01-09T00:13:23.362Z,7.00
2023-01-09T00:15:51.631Z,6.90
2023-01-09T00:18:32.521Z,6.90
2023-01-09T00:21:05.838Z,6.90
2023-01-09T00:23:35.894Z,6.90
2023-01-09T00:26:10.834Z,6.80
2023-01-09T00:28:43.313Z,6.80
2023-01-09T00:31:15.435Z,6.80
2023-01-09T00:33:46.153Z,6.80
2023-01-09T00:36:24.207Z,6.80
2023-01-09T00:38:53.779Z,6.80
2023-01-09T00:41:39.706Z,6.80
2023-01-09T00:44:25.285Z,6.80
2023-01-09T00:47:03.051Z,6.80
2023-01-09T00:49:38.344Z,6.80
2023-01-09T00:52:16.513Z,6.80
2023-01-09T00:54:44.054Z,6.80
2023-01-09T00:57:12.873Z,6.80
2023-01-09T00:59:40.044Z,6.80
2023-01-09T01:02:07.137Z,6.80
2023-01-09T01:04:52.418Z,6.80
2023-01-09T01:07:37.483Z,6.80
2023-01-09T01:10:05.245Z,6.80
2023-01-09T01:12:31.795Z,6.80
2023-01-09T01:14:58.342Z,6.80
2023-01-09T01:17:24.966Z,6.80
2023-01-09T01:19:53.228Z,6.90
2023-01-09T01:22:19.760Z,7.00
2023-01-09T01:24:46.331Z,7.00
2023-01-09T01:27:12.955Z,7.00
2023-01-09T01:29:39.489Z,7.00
2023-01-09T01:32:06.068Z,7.00
2023-01-09T01:34:32.593Z,7.00
2023-01-09T01:36:59.249Z,7.10
2023-01-09T01:39:25.871Z,7.10
2023-01-09T01:41:52.397Z,7.00
2023-01-09T01:44:37.732Z,7.00
2023-01-09T01:47:04.305Z,7.00
2023-01-09T01:49:31.102Z,7.00
2023-01-09T01:51:57.655Z,7.00
2023-01-09T01:54:26.298Z,7.00
2023-01-09T01:56:57.000Z,6.90
2023-01-09T01:59:26.279Z,6.90
2023-01-09T02:01:54.348Z,6.90
2023-01-09T02:04:21.037Z,6.80
2023-01-09T02:06:48.946Z,6.80
2023-01-09T02:09:17.902Z,6.80
2023-01-09T02:11:48.015Z,6.80
2023-01-09T02:14:15.595Z,6.90
2023-01-09T02:16:42.106Z,6.90
2023-01-09T02:19:26.799Z,6.90
2023-01-09T02:22:12.809Z,6.90
2023-01-09T02:24:58.207Z,6.90
2023-01-09T02:27:24.841Z,6.80
2023-01-09T02:30:09.968Z,6.70
2023-01-09T02:32:45.332Z,6.70
2023-01-09T02:35:14.954Z,6.50
2023-01-09T02:37:51.906Z,6.40
2023-01-09T02:40:22.142Z,6.40
2023-01-09T02:42:48.781Z,6.30
2023-01-09T02:45:15.343Z,6.30
2023-01-09T02:47:43.504Z,6.20
2023-01-09T02:50:13.692Z,6.20
2023-01-09T02:52:58.758Z,6.20
2023-01-09T02:55:28.296Z,6.20
2023-01-09T02:58:06.886Z,6.20
2023-01-09T03:00:55.330Z,6.20
2023-01-09T03:03:27.434Z,6.30
2023-01-09T03:06:00.965Z,6.30
2023-01-09T03:08:47.516Z,6.30
2023-01-09T03:11:14.163Z,6.30
2023-01-09T03:13:43.825Z,6.30
2023-01-09T03:16:13.044Z,6.40
2023-01-09T03:18:39.890Z,6.40
2023-01-09T03:21:08.057Z,6.50
2023-01-09T03:23:46.775Z,6.50
2023-01-09T03:26:13.452Z,6.40
2023-01-09T03:28:39.957Z,6.50
2023-01-09T03:31:06.516Z,6.50
2023-01-09T03:33:33.006Z,6.50
2023-01-09T03:35:59.519Z,6.50
2023-01-09T03:38:26.038Z,6.60
2023-01-09T03:40:52.683Z,6.60
2023-01-09T03:43:19.199Z,6.70
2023-01-09T03:45:45.843Z,6.70
2023-01-09T03:48:12.358Z,6.70
2023-01-09T03:50:38.913Z,6.80
2023-01-09T03:53:05.493Z,6.80
2023-01-09T03:55:32.070Z,6.90
2023-01-09T03:57:58.570Z,6.80
2023-01-09T04:00:25.312Z,6.70
2023-01-09T04:02:51.775Z,6.60
2023-01-09T04:05:18.260Z,6.50
2023-01-09T04:07:45.003Z,6.50
2023-01-09T04:10:11.740Z,6.40
2023-01-09T04:12:38.452Z,6.30
2023-01-09T04:15:05.329Z,6.30
2023-01-09T04:17:31.942Z,6.20
2023-01-09T04:19:59.204Z,6.10
2023-01-09T04:22:25.758Z,5.90
2023-01-09T04:24:52.445Z,5.90
2023-01-09T04:27:19.017Z,5.80
2023-01-09T04:29:46.019Z,5.80
2023-01-09T04:32:12.544Z,5.80
2023-01-09T04:34:39.122Z,5.80
2023-01-09T04:37:06.024Z,5.80
2023-01-09T04:39:32.568Z,5.80
2023-01-09T04:41:59.093Z,5.80
2023-01-09T04:44:28.699Z,5.90
2023-01-09T04:46:56.332Z,5.90
2023-01-09T04:49:22.957Z,6.00
2023-01-09T04:51:49.462Z,6.00
2023-01-09T04:54:16.439Z,6.00
2023-01-09T04:56:42.997Z,6.10
2023-01-09T04:59:09.536Z,6.10
2023-01-09T05:01:36.976Z,6.20
2023-01-09T05:04:04.170Z,6.40
2023-01-09T05:06:31.323Z,6.50
2023-01-09T05:08:58.124Z,6.50
2023-01-09T05:11:25.541Z,6.60
2023-01-09T05:13:52.735Z,6.60
2023-01-09T05:16:19.481Z,6.60
2023-01-09T05:18:46.042Z,6.70
2023-01-09T05:21:12.864Z,6.70
2023-01-09T05:23:39.459Z,6.70
2023-01-09T05:26:06.190Z,6.70
2023-01-09T05:28:32.765Z,6.70
2023-01-09T05:30:59.268Z,6.60
2023-01-09T05:33:25.743Z,6.60
2023-01-09T05:35:52.234Z,6.60
2023-01-09T05:38:18.803Z,6.60
2023-01-09T05:40:45.323Z,6.60
2023-01-09T05:43:11.855Z,6.60
2023-01-09T05:45:38.490Z,6.60
2023-01-09T05:48:05.134Z,6.60
2023-01-09T05:50:31.623Z,6.60
2023-01-09T05:52:58.130Z,6.60
2023-01-09T05:55:24.728Z,6.60
2023-01-09T05:57:51.239Z,6.60
2023-01-09T06:00:18.139Z,6.70
2023-01-09T06:02:44.711Z,6.70
2023-01-09T06:05:11.354Z,6.70
2023-01-09T06:07:40.398Z,6.70
2023-01-09T06:10:11.356Z,6.70
2023-01-09T06:12:38.014Z,6.60
2023-01-09T06:15:06.385Z,6.60
2023-01-09T06:17:33.981Z,6.70
2023-01-09T06:20:00.609Z,6.60
2023-01-09T06:22:27.136Z,6.60
2023-01-09T06:24:53.645Z,6.60
2023-01-09T06:27:20.226Z,6.60
2023-01-09T06:29:46.732Z,6.60
2023-01-09T06:32:13.292Z,6.60
2023-01-09T06:34:39.818Z,6.60
2023-01-09T06:37:06.408Z,6.60
2023-01-09T06:39:33.001Z,6.70
2023-01-09T06:41:59.749Z,6.80
2023-01-09T06:44:26.265Z,6.90
2023-01-09T06:46:52.843Z,6.90
2023-01-09T06:49:23.392Z,6.90
2023-01-09T06:51:51.101Z,6.90
2023-01-09T06:54:18.582Z,6.90
2023-01-09T06:56:45.302Z,6.90
2023-01-09T06:59:12.210Z,7.00
2023-01-09T07:01:41.865Z,6.90
2023-01-09T07:04:10.858Z,7.00
2023-01-09T07:06:37.926Z,7.00
2023-01-09T07:09:06.163Z,7.00
2023-01-09T07:11:33.104Z,7.00
2023-01-09T07:13:59.655Z,7.00
2023-01-09T07:16:26.275Z,6.90
2023-01-09T07:18:54.735Z,6.90
2023-01-09T07:21:21.444Z,6.90
2023-01-09T07:23:48.021Z,6.80
2023-01-09T07:26:17.205Z,6.80
2023-01-09T07:28:43.692Z,6.80
2023-01-09T07:31:10.265Z,6.80
2023-01-09T07:33:36.840Z,6.90
2023-01-09T07:36:03.421Z,6.90
2023-01-09T07:38:29.997Z,6.90
2023-01-09T07:40:56.609Z,6.90
2023-01-09T07:43:23.129Z,7.00
2023-01-09T07:45:49.706Z,7.00
2023-01-09T07:48:16.248Z,7.00
2023-01-09T07:50:42.814Z,7.00
2023-01-09T07:53:09.309Z,7.00
2023-01-09T07:55:35.882Z,7.10
2023-01-09T07:58:02.429Z,7.10
2023-01-09T08:00:29.098Z,7.10
2023-01-09T08:02:55.763Z,7.20
2023-01-09T08:05:22.706Z,7.20
2023-01-09T08:07:51.207Z,7.10
2023-01-09T08:10:19.681Z,7.20
2023-01-09T08:12:47.028Z,7.20
2023-01-09T08:15:14.008Z,7.30
2023-01-09T08:17:41.878Z,7.40
2023-01-09T08:20:10.880Z,7.50
2023-01-09T08:22:37.905Z,7.50
2023-01-09T08:25:04.963Z,7.50
2023-01-09T08:27:31.433Z,7.50
2023-01-09T08:29:58.068Z,7.50
2023-01-09T08:32:24.640Z,7.50
2023-01-09T08:34:51.766Z,7.50
2023-01-09T08:37:18.423Z,7.50
2023-01-09T08:39:44.962Z,7.60
2023-01-09T08:42:30.256Z,7.60
2023-01-09T08:45:15.449Z,7.60
2023-01-09T08:47:41.971Z,7.60
2023-01-09T08:50:08.847Z,7.70
2023-01-09T08:52:35.366Z,7.70
2023-01-09T08:55:02.470Z,7.70
2023-01-09T08:57:29.129Z,7.80
2023-01-09T08:59:59.415Z,7.80
2023-01-09T09:02:26.103Z,7.90
2023-01-09T09:04:53.644Z,7.80
2023-01-09T09:07:26.584Z,7.80
2023-01-09T09:09:53.792Z,7.70
2023-01-09T09:12:20.473Z,7.70
2023-01-09T09:15:05.454Z,7.70
2023-01-09T09:17:33.433Z,7.90
2023-01-09T09:20:02.511Z,9.00
2023-01-09T09:22:29.247Z,9.20
2023-01-09T09:24:56.005Z,9.10
2023-01-09T09:27:22.691Z,10.00
2023-01-09T09:29:49.460Z,10.30
2023-01-09T09:32:20.924Z,10.20
2023-01-09T09:34:47.949Z,10.30
2023-01-09T09:37:14.648Z,10.80
2023-01-09T09:39:43.763Z,11.20
2023-01-09T09:42:32.247Z,10.50
2023-01-09T09:45:14.220Z,10.10
2023-01-09T09:47:56.060Z,10.60
2023-01-09T09:50:39.788Z,10.00
2023-01-09T09:53:24.804Z,9.90
2023-01-09T09:55:54.905Z,9.60
2023-01-09T09:58:33.973Z,9.30
2023-01-09T10:01:03.816Z,9.10
2023-01-09T10:03:39.789Z,8.90
2023-01-09T10:06:15.018Z,8.90
2023-01-09T10:09:12.745Z,8.90
2023-01-09T10:11:45.671Z,8.90
2023-01-09T10:14:23.804Z,8.90
2023-01-09T10:17:09.712Z,8.90
2023-01-09T10:19:41.403Z,9.00
2023-01-09T10:22:11.033Z,9.20
2023-01-09T10:27:40.333Z,9.60
2023-01-09T10:30:16.619Z,9.70
2023-01-09T10:33:01.399Z,9.70
2023-01-09T10:35:48.123Z,9.60
2023-01-09T10:38:18.079Z,9.50
2023-01-09T10:40:52.468Z,9.50
2023-01-09T10:43:19.033Z,9.50
2023-01-09T10:45:50.771Z,9.50
2023-01-09T10:48:30.204Z,9.30
2023-01-09T10:50:56.976Z,9.30
2023-01-09T10:53:27.429Z,9.20
2023-01-09T10:56:01.524Z,9.20
2023-01-09T10:58:29.425Z,9.10
2023-01-09T11:00:58.729Z,9.20
2023-01-09T11:03:27.114Z,9.20
2023-01-09T11:05:54.973Z,9.20
2023-01-09T11:08:24.297Z,9.20
2023-01-09T11:10:51.781Z,9.20
2023-01-09T11:13:22.918Z,9.20
2023-01-09T11:16:14.158Z,9.20
2023-01-09T11:18:48.246Z,9.10
2023-01-09T11:21:35.517Z,9.10
2023-01-09T11:24:17.316Z,9.10
2023-01-09T11:29:17.870Z,9.20
2023-01-09T11:31:51.914Z,9.20
2023-01-09T11:34:29.395Z,9.20
2023-01-09T11:37:03.813Z,9.20
2023-01-09T11:39:31.692Z,9.20
2023-01-09T11:42:03.193Z,9.10
2023-01-09T11:44:30.818Z,9.20
2023-01-09T11:46:57.660Z,9.20
2023-01-09T11:49:28.628Z,9.20
2023-01-09T11:52:13.881Z,9.10
2023-01-09T11:54:56.312Z,9.00
2023-01-09T11:57:24.206Z,9.00
2023-01-09T11:59:55.391Z,9.00
2023-01-09T12:02:37.121Z,9.00
2023-01-09T12:05:12.839Z,9.00
2023-01-09T12:07:57.690Z,8.90
2023-01-09T12:10:34.767Z,8.70
2023-01-09T12:16:57.364Z,8.70
2023-01-09T12:19:41.986Z,8.80
2023-01-09T12:22:31.702Z,8.80
2023-01-09T12:25:10.622Z,8.90
2023-01-09T12:27:46.324Z,8.90
2023-01-09T12:30:32.635Z,9.00
2023-01-09T12:33:09.538Z,9.00
2023-01-09T12:35:51.085Z,9.00
2023-01-09T12:38:56.756Z,8.90
2023-01-09T12:45:01.716Z,8.60
2023-01-09T12:50:36.466Z,8.50
2023-01-09T12:53:40.071Z,8.50
2023-01-09T12:56:40.922Z,8.50
2023-01-09T12:59:41.670Z,8.50
2023-01-09T13:02:33.763Z,8.50
2023-01-09T13:05:15.194Z,8.50
2023-01-09T13:07:54.853Z,8.50
2023-01-09T13:10:48.025Z,8.60
2023-01-09T13:13:47.019Z,8.60
2023-01-09T13:16:20.477Z,8.60
2023-01-09T13:19:00.397Z,8.70
2023-01-09T13:21:30.982Z,8.80
2023-01-09T13:24:52.717Z,8.90
2023-01-09T13:39:54.437Z,8.80
2023-01-09T13:57:59.189Z,8.50
2023-01-09T14:00:25.843Z,8.60
2023-01-09T14:02:56.303Z,8.70
2023-01-09T14:05:22.954Z,8.60
2023-01-09T14:08:02.690Z,8.60
2023-01-09T14:10:52.626Z,8.60
2023-01-09T14:13:27.609Z,8.50
2023-01-09T14:16:07.780Z,8.50
2023-01-09T14:18:54.837Z,8.40
2023-01-09T14:21:24.856Z,8.40
2023-01-09T14:23:53.746Z,8.40
2023-01-09T14:26:42.579Z,8.30
2023-01-09T14:29:27.710Z,8.30
2023-01-09T14:32:16.367Z,8.30
2023-01-09T14:34:53.881Z,8.30
2023-01-09T14:37:20.885Z,8.30
2023-01-09T14:39:54.494Z,8.20
2023-01-09T14:42:28.803Z,8.20
2023-01-09T14:45:04.108Z,8.20
2023-01-09T14:47:31.679Z,8.20
2023-01-09T14:50:00.707Z,8.20
2023-01-09T14:52:32.593Z,8.20
2023-01-09T14:55:03.391Z,8.20
2023-01-09T14:57:34.740Z,8.10
2023-01-09T15:00:06.074Z,8.10
2023-01-09T15:02:35.116Z,8.00
2023-01-09T15:05:09.708Z,7.90
2023-01-09T15:07:46.523Z,7.90
2023-01-09T15:10:33.430Z,7.90
2023-01-09T15:13:01.637Z,7.90
2023-01-09T15:15:28.766Z,8.00
2023-01-09T15:17:59.856Z,8.00
2023-01-09T15:20:32.861Z,7.90
2023-01-09T15:23:04.271Z,7.90
2023-01-09T15:25:38.986Z,7.90
2023-01-09T15:28:25.457Z,8.00
2023-01-09T15:31:02.253Z,7.90
2023-01-09T15:33:28.933Z,7.80
2023-01-09T15:36:03.100Z,7.80
2023-01-09T15:38:31.290Z,7.80
2023-01-09T15:40:59.803Z,7.80
2023-01-09T15:43:30.191Z,7.80
2023-01-09T15:45:57.966Z,7.80
2023-01-09T15:48:28.345Z,7.80
2023-01-09T15:51:03.724Z,7.80
2023-01-09T15:53:32.995Z,7.80
2023-01-09T15:58:39.921Z,7.80
2023-01-09T16:01:30.112Z,7.70
2023-01-09T16:04:10.539Z,7.70
2023-01-09T16:06:45.194Z,7.70
2023-01-09T16:09:22.271Z,7.70
2023-01-09T16:11:51.962Z,7.60
2023-01-09T16:14:23.288Z,7.50
2023-01-09T16:16:54.299Z,7.40
2023-01-09T16:19:28.878Z,7.30
2023-01-09T16:22:00.108Z,7.30
2023-01-09T16:24:32.257Z,7.20
2023-01-09T16:27:11.972Z,7.20
2023-01-09T16:29:39.241Z,7.20
2023-01-09T16:32:06.564Z,7.20
2023-01-09T16:34:33.925Z,7.20
2023-01-09T16:37:02.672Z,7.20
2023-01-09T16:39:29.359Z,7.20
2023-01-09T16:42:15.745Z,7.20
2023-01-09T16:44:42.794Z,7.10
2023-01-09T16:47:12.517Z,7.20
2023-01-09T16:49:39.147Z,7.10
2023-01-09T16:52:15.078Z,7.10
2023-01-09T16:54:43.526Z,7.10
2023-01-09T16:57:13.274Z,7.10
2023-01-09T16:59:39.843Z,7.10
2023-01-09T17:02:15.595Z,7.10
2023-01-09T17:04:42.215Z,7.10
2023-01-09T17:07:11.532Z,7.10
2023-01-09T17:09:38.991Z,7.00
2023-01-09T17:12:05.683Z,7.00
2023-01-09T17:14:32.343Z,7.00
2023-01-09T17:16:58.977Z,7.00
2023-01-09T17:19:25.589Z,7.10
2023-01-09T17:21:52.155Z,7.10
2023-01-09T17:24:37.185Z,7.10
2023-01-09T17:27:22.279Z,7.10
2023-01-09T17:29:48.838Z,7.10
2023-01-09T17:32:16.271Z,7.00
2023-01-09T17:34:42.976Z,7.10
2023-01-09T17:37:16.673Z,7.10
2023-01-09T17:39:44.236Z,7.10
2023-01-09T17:42:10.981Z,7.10
2023-01-09T17:44:37.638Z,7.00
2023-01-09T17:47:04.210Z,7.00
2023-01-09T17:49:30.867Z,7.00
2023-01-09T17:51:57.503Z,7.00
2023-01-09T17:54:24.047Z,6.90
2023-01-09T17:56:51.210Z,6.90
2023-01-09T17:59:18.296Z,6.90
2023-01-09T18:01:45.023Z,6.80
2023-01-09T18:06:50.622Z,6.80
2023-01-09T18:09:17.312Z,6.90
2023-01-09T18:11:44.607Z,6.80
2023-01-09T18:14:13.510Z,6.90
2023-01-09T18:16:40.469Z,6.80
2023-01-09T18:19:07.315Z,6.80
2023-01-09T18:21:33.834Z,6.80
2023-01-09T18:24:01.485Z,6.70
2023-01-09T18:26:28.085Z,6.70
2023-01-09T18:28:56.403Z,6.60
2023-01-09T18:31:24.329Z,6.60
2023-01-09T18:33:52.153Z,6.70
2023-01-09T18:36:19.881Z,6.70
2023-01-09T18:38:49.458Z,6.70
2023-01-09T18:41:16.026Z,6.70
2023-01-09T18:43:42.657Z,6.70
2023-01-09T18:46:09.279Z,6.80
2023-01-09T18:48:36.051Z,6.80
2023-01-09T18:51:03.724Z,6.80
2023-01-09T18:53:30.420Z,6.80
2023-01-09T18:55:56.942Z,6.90
2023-01-09T18:58:23.613Z,6.90
2023-01-09T19:00:51.381Z,6.90
2023-01-09T19:03:18.081Z,6.90
2023-01-09T19:05:44.607Z,6.90
2023-01-09T19:08:11.139Z,6.90
2023-01-09T19:10:37.640Z,7.00
2023-01-09T19:13:04.278Z,7.00
2023-01-09T19:15:30.926Z,7.00
2023-01-09T19:17:57.556Z,7.00
2023-01-09T19:20:24.212Z,7.10
2023-01-09T19:22:50.952Z,7.10
2023-01-09T19:25:19.630Z,7.10
2023-01-09T19:27:51.823Z,7.10
2023-01-09T19:30:18.487Z,7.10
2023-01-09T19:32:47.548Z,7.10
2023-01-09T19:35:17.575Z,7.10
2023-01-09T19:37:45.525Z,7.10
2023-01-09T19:40:15.163Z,7.20
2023-01-09T19:42:45.703Z,7.20
2023-01-09T19:45:12.278Z,7.20
2023-01-09T19:47:46.635Z,7.20
2023-01-09T19:50:16.464Z,7.20
2023-01-09T19:52:43.469Z,7.20
2023-01-09T19:55:14.108Z,7.20
2023-01-09T19:57:41.399Z,7.20
2023-01-09T20:00:10.414Z,7.10
2023-01-09T20:02:37.040Z,7.00
2023-01-09T20:05:08.662Z,6.90
2023-01-09T20:07:35.261Z,6.90
2023-01-09T20:10:04.919Z,6.80
2023-01-09T20:12:32.911Z,6.90
2023-01-09T20:14:59.589Z,6.90
2023-01-09T20:17:28.663Z,6.90
2023-01-09T20:19:55.294Z,6.90
2023-01-09T20:22:23.978Z,6.90
2023-01-09T20:24:52.967Z,6.90
2023-01-09T20:27:25.494Z,6.80
2023-01-09T20:29:52.697Z,6.60
2023-01-09T20:32:29.832Z,6.50
2023-01-09T20:34:57.052Z,6.50
2023-01-09T20:37:23.549Z,6.40
2023-01-09T20:39:52.914Z,6.40
2023-01-09T20:42:19.447Z,6.30
2023-01-09T20:44:46.049Z,6.40
2023-01-09T20:47:12.632Z,6.40
2023-01-09T20:49:39.175Z,6.40
2023-01-09T20:52:05.729Z,6.40
2023-01-09T20:54:32.762Z,6.50
2023-01-09T20:56:59.216Z,6.50
2023-01-09T20:59:25.720Z,6.40
2023-01-09T21:01:52.652Z,6.50
2023-01-09T21:04:19.459Z,6.50
2023-01-09T21:06:48.250Z,6.50
2023-01-09T21:09:16.328Z,6.50
2023-01-09T21:11:45.127Z,6.50
2023-01-09T21:14:11.785Z,6.50
2023-01-09T21:16:38.573Z,6.50
2023-01-09T21:19:05.124Z,6.50
2023-01-09T21:21:31.673Z,6.50
2023-01-09T21:23:58.843Z,6.50
2023-01-09T21:26:28.083Z,6.50
2023-01-09T21:28:55.956Z,6.50
2023-01-09T21:31:25.108Z,6.60
2023-01-09T21:33:54.204Z,6.60
2023-01-09T21:36:21.195Z,6.60
2023-01-09T21:38:47.808Z,6.50
2023-01-09T21:44:03.573Z,6.40
2023-01-09T21:46:48.654Z,6.40
2023-01-09T21:49:15.284Z,6.40
2023-01-09T21:51:41.923Z,6.30
2023-01-09T21:54:08.990Z,6.30
2023-01-09T21:56:35.569Z,6.30
2023-01-09T21:59:02.160Z,6.20
2023-01-09T22:01:28.847Z,6.10
2023-01-09T22:03:59.191Z,6.00
2023-01-09T22:06:26.007Z,5.90
2023-01-09T22:08:52.783Z,5.90
2023-01-09T22:13:53.991Z,5.90
2023-01-09T22:16:20.645Z,6.00
2023-01-09T22:18:47.258Z,5.90
2023-01-09T22:21:13.808Z,6.00
2023-01-09T22:23:40.421Z,6.00
2023-01-09T22:26:08.202Z,6.00
2023-01-09T22:28:34.754Z,6.00
2023-01-09T22:31:01.290Z,6.10
2023-01-09T22:33:27.795Z,6.10
2023-01-09T22:35:54.332Z,6.10
2023-01-09T22:38:20.964Z,6.20
2023-01-09T22:40:47.589Z,6.20
2023-01-09T22:43:16.350Z,6.20
2023-01-09T22:45:43.018Z,6.20
2023-01-09T22:48:09.965Z,6.20
2023-01-09T22:50:37.096Z,6.20
2023-01-09T22:53:03.848Z,6.20
2023-01-09T22:55:30.333Z,6.20
2023-01-09T22:57:56.999Z,6.20
2023-01-09T23:00:23.652Z,6.30
2023-01-09T23:02:50.372Z,6.20
2023-01-09T23:05:19.539Z,6.20
2023-01-09T23:07:46.151Z,6.20
2023-01-09T23:10:12.797Z,6.10
2023-01-09T23:12:39.385Z,6.10
2023-01-09T23:15:06.289Z,6.10
2023-01-09T23:17:32.877Z,6.10
2023-01-09T23:19:59.439Z,6.10
2023-01-09T23:22:26.184Z,6.10
2023-01-09T23:24:52.724Z,6.20
2023-01-09T23:27:19.305Z,6.10
2023-01-09T23:29:46.332Z,6.20
2023-01-09T23:32:14.100Z,6.20
2023-01-09T23:34:41.550Z,6.20
2023-01-09T23:37:09.499Z,6.30
2023-01-09T23:39:36.082Z,6.20
2023-01-09T23:42:21.225Z,6.20
2023-01-09T23:44:47.827Z,6.20
2023-01-09T23:47:14.339Z,6.10
2023-01-09T23:49:40.906Z,6.10
2023-01-09T23:52:08.631Z,6.10
2023-01-09T23:54:35.303Z,6.10
2023-01-09T23:57:01.929Z,6.10
2023-01-09T23:59:28.470Z,6.10
